Leicester, Massachusetts
Current Conditions -  °F | °C
As of 3:54 PM on Tuesday 21 Oct 2014 (Local Time) from KORH Reporting Station
Broken Clouds Broken Clouds  
Wind Chill: 60°   Ceiling: 2100
Heat Index: 60°   Visibility: 10mi
Dew Point: 50°   Wind: 7mph
Humidity: 69%   Direction: 50°NE
Pressure: 29.9"   Gusts: NA
Location:  42.25°N, 71.91°W
Report Text: KORH 211954Z 05006KT 10SM BKN021 BKN028 16/10 A2990 RMK AO2 SLP126 T01560100
Loading
Personal Weather Stations






























Interactive Weather Map
Tropical Storm Tracking
New forecast layout! Learn more

10-Day Weather Forecast

Advertisements
Track Severe Weather on mobile